sensor_id;sensor_type;location;lat;lon;timestamp;P1;durP1;ratioP1;P2;durP2;ratioP2
10365;SDS011;5229;41.820;23.490;2023-04-01T00:01:16;2.37;;;1.37;;
10365;SDS011;5229;41.820;23.490;2023-04-01T00:03:43;1.50;;;1.20;;
10365;SDS011;5229;41.820;23.490;2023-04-01T00:06:11;3.87;;;1.33;;
10365;SDS011;5229;41.820;23.490;2023-04-01T00:08:39;1.40;;;0.90;;
10365;SDS011;5229;41.820;23.490;2023-04-01T00:11:06;3.40;;;1.50;;
10365;SDS011;5229;41.820;23.490;2023-04-01T00:13:34;1.33;;;1.23;;
10365;SDS011;5229;41.820;23.490;2023-04-01T00:16:01;1.23;;;0.90;;
10365;SDS011;5229;41.820;23.490;2023-04-01T00:18:29;1.53;;;1.43;;
10365;SDS011;5229;41.820;23.490;2023-04-01T00:20:56;1.63;;;1.37;;
10365;SDS011;5229;41.820;23.490;2023-04-01T00:23:23;2.17;;;1.30;;
10365;SDS011;5229;41.820;23.490;2023-04-01T00:25:50;1.57;;;1.27;;
10365;SDS011;5229;41.820;23.490;2023-04-01T00:28:17;4.37;;;1.43;;
10365;SDS011;5229;41.820;23.490;2023-04-01T00:30:47;2.23;;;1.13;;
10365;SDS011;5229;41.820;23.490;2023-04-01T00:33:14;1.93;;;1.40;;
10365;SDS011;5229;41.820;23.490;2023-04-01T00:35:42;2.03;;;1.27;;
10365;SDS011;5229;41.820;23.490;2023-04-01T00:38:09;4.23;;;1.60;;
10365;SDS011;5229;41.820;23.490;2023-04-01T00:40:37;4.00;;;1.67;;
10365;SDS011;5229;41.820;23.490;2023-04-01T00:43:09;3.73;;;1.37;;
10365;SDS011;5229;41.820;23.490;2023-04-01T00:45:38;3.80;;;1.30;;
10365;SDS011;5229;41.820;23.490;2023-04-01T00:48:09;1.57;;;1.33;;
10365;SDS011;5229;41.820;23.490;2023-04-01T00:50:37;2.80;;;1.43;;
10365;SDS011;5229;41.820;23.490;2023-04-01T00:53:07;4.50;;;1.30;;
10365;SDS011;5229;41.820;23.490;2023-04-01T00:55:35;1.60;;;1.10;;
10365;SDS011;5229;41.820;23.490;2023-04-01T00:58:06;4.37;;;1.23;;
10365;SDS011;5229;41.820;23.490;2023-04-01T01:00:35;2.00;;;1.30;;
10365;SDS011;5229;41.820;23.490;2023-04-01T01:03:02;1.50;;;1.27;;
10365;SDS011;5229;41.820;23.490;2023-04-01T01:05:33;5.53;;;1.50;;
10365;SDS011;5229;41.820;23.490;2023-04-01T01:08:13;1.33;;;1.20;;
10365;SDS011;5229;41.820;23.490;2023-04-01T01:10:45;2.57;;;1.80;;
10365;SDS011;5229;41.820;23.490;2023-04-01T01:13:16;1.07;;;0.97;;
10365;SDS011;5229;41.820;23.490;2023-04-01T01:15:49;1.50;;;1.30;;
10365;SDS011;5229;41.820;23.490;2023-04-01T01:18:23;1.93;;;1.53;;
10365;SDS011;5229;41.820;23.490;2023-04-01T01:24:20;4.17;;;1.40;;
10365;SDS011;5229;41.820;23.490;2023-04-01T01:27:00;4.03;;;1.27;;
10365;SDS011;5229;41.820;23.490;2023-04-01T01:29:38;1.90;;;1.07;;
10365;SDS011;5229;41.820;23.490;2023-04-01T01:32:14;2.60;;;1.23;;
10365;SDS011;5229;41.820;23.490;2023-04-01T01:34:51;3.67;;;1.23;;
10365;SDS011;5229;41.820;23.490;2023-04-01T01:37:25;1.47;;;0.83;;
10365;SDS011;5229;41.820;23.490;2023-04-01T01:39:54;1.87;;;1.17;;
10365;SDS011;5229;41.820;23.490;2023-04-01T01:42:25;2.10;;;1.27;;
10365;SDS011;5229;41.820;23.490;2023-04-01T01:44:53;3.33;;;1.80;;
10365;SDS011;5229;41.820;23.490;2023-04-01T01:47:24;4.53;;;2.27;;
10365;SDS011;5229;41.820;23.490;2023-04-01T01:49:52;5.13;;;1.97;;
10365;SDS011;5229;41.820;23.490;2023-04-01T01:52:21;3.90;;;2.90;;
10365;SDS011;5229;41.820;23.490;2023-04-01T01:54:51;2.00;;;1.80;;
10365;SDS011;5229;41.820;23.490;2023-04-01T01:57:21;2.40;;;1.47;;
10365;SDS011;5229;41.820;23.490;2023-04-01T01:59:51;1.50;;;1.30;;
10365;SDS011;5229;41.820;23.490;2023-04-01T02:02:21;1.77;;;1.30;;
10365;SDS011;5229;41.820;23.490;2023-04-01T02:04:49;2.27;;;1.27;;
10365;SDS011;5229;41.820;23.490;2023-04-01T02:07:18;2.07;;;1.20;;
10365;SDS011;5229;41.820;23.490;2023-04-01T02:09:48;1.57;;;1.17;;
10365;SDS011;5229;41.820;23.490;2023-04-01T02:12:17;2.20;;;1.00;;
10365;SDS011;5229;41.820;23.490;2023-04-01T02:14:45;2.50;;;1.60;;
10365;SDS011;5229;41.820;23.490;2023-04-01T02:17:17;1.20;;;1.10;;
10365;SDS011;5229;41.820;23.490;2023-04-01T02:19:46;1.97;;;1.30;;
10365;SDS011;5229;41.820;23.490;2023-04-01T02:22:16;2.50;;;1.33;;
10365;SDS011;5229;41.820;23.490;2023-04-01T02:24:47;1.40;;;1.10;;
10365;SDS011;5229;41.820;23.490;2023-04-01T02:27:18;1.20;;;1.10;;
10365;SDS011;5229;41.820;23.490;2023-04-01T02:29:47;2.60;;;1.23;;
10365;SDS011;5229;41.820;23.490;2023-04-01T02:32:13;3.57;;;1.60;;
10365;SDS011;5229;41.820;23.490;2023-04-01T02:34:41;1.40;;;1.30;;
10365;SDS011;5229;41.820;23.490;2023-04-01T02:37:09;2.17;;;1.50;;
10365;SDS011;5229;41.820;23.490;2023-04-01T02:39:38;1.60;;;1.50;;
10365;SDS011;5229;41.820;23.490;2023-04-01T02:42:05;1.53;;;1.33;;
10365;SDS011;5229;41.820;23.490;2023-04-01T02:44:33;1.47;;;1.27;;
10365;SDS011;5229;41.820;23.490;2023-04-01T02:47:00;1.90;;;1.30;;
10365;SDS011;5229;41.820;23.490;2023-04-01T02:49:27;2.53;;;1.40;;
10365;SDS011;5229;41.820;23.490;2023-04-01T02:51:54;2.07;;;1.87;;
10365;SDS011;5229;41.820;23.490;2023-04-01T02:54:21;2.53;;;1.67;;
10365;SDS011;5229;41.820;23.490;2023-04-01T02:56:48;2.77;;;1.20;;
10365;SDS011;5229;41.820;23.490;2023-04-01T02:59:14;1.93;;;1.53;;
10365;SDS011;5229;41.820;23.490;2023-04-01T03:01:43;3.10;;;1.67;;
10365;SDS011;5229;41.820;23.490;2023-04-01T03:04:10;1.53;;;1.43;;
10365;SDS011;5229;41.820;23.490;2023-04-01T03:06:36;1.47;;;1.10;;
10365;SDS011;5229;41.820;23.490;2023-04-01T03:09:03;3.67;;;1.60;;
10365;SDS011;5229;41.820;23.490;2023-04-01T03:11:30;3.47;;;1.60;;
10365;SDS011;5229;41.820;23.490;2023-04-01T03:13:57;2.27;;;1.63;;
10365;SDS011;5229;41.820;23.490;2023-04-01T03:16:23;2.13;;;1.53;;
10365;SDS011;5229;41.820;23.490;2023-04-01T03:18:52;2.30;;;1.67;;
10365;SDS011;5229;41.820;23.490;2023-04-01T03:21:20;2.73;;;1.80;;
10365;SDS011;5229;41.820;23.490;2023-04-01T03:23:48;3.40;;;1.47;;
10365;SDS011;5229;41.820;23.490;2023-04-01T03:26:16;2.10;;;1.50;;
10365;SDS011;5229;41.820;23.490;2023-04-01T03:28:43;3.60;;;1.30;;
10365;SDS011;5229;41.820;23.490;2023-04-01T03:31:10;2.73;;;1.60;;
10365;SDS011;5229;41.820;23.490;2023-04-01T03:33:37;3.30;;;1.20;;
10365;SDS011;5229;41.820;23.490;2023-04-01T03:36:06;4.23;;;1.90;;
10365;SDS011;5229;41.820;23.490;2023-04-01T03:38:33;3.93;;;1.43;;
10365;SDS011;5229;41.820;23.490;2023-04-01T03:41:00;4.23;;;1.67;;
10365;SDS011;5229;41.820;23.490;2023-04-01T03:43:26;3.50;;;1.57;;
10365;SDS011;5229;41.820;23.490;2023-04-01T03:45:53;1.53;;;1.40;;
10365;SDS011;5229;41.820;23.490;2023-04-01T03:48:22;2.17;;;1.33;;
10365;SDS011;5229;41.820;23.490;2023-04-01T03:50:50;5.13;;;1.83;;
10365;SDS011;5229;41.820;23.490;2023-04-01T03:53:18;2.57;;;1.83;;
10365;SDS011;5229;41.820;23.490;2023-04-01T03:55:46;1.80;;;1.60;;
10365;SDS011;5229;41.820;23.490;2023-04-01T03:58:13;1.53;;;1.27;;
10365;SDS011;5229;41.820;23.490;2023-04-01T04:00:40;1.83;;;1.30;;
10365;SDS011;5229;41.820;23.490;2023-04-01T04:03:07;2.93;;;1.40;;
10365;SDS011;5229;41.820;23.490;2023-04-01T04:05:34;3.50;;;1.60;;
10365;SDS011;5229;41.820;23.490;2023-04-01T04:08:01;4.70;;;1.57;;
10365;SDS011;5229;41.820;23.490;2023-04-01T04:10:29;2.43;;;1.40;;
10365;SDS011;5229;41.820;23.490;2023-04-01T04:12:56;3.90;;;1.50;;
10365;SDS011;5229;41.820;23.490;2023-04-01T04:15:23;3.27;;;1.30;;
10365;SDS011;5229;41.820;23.490;2023-04-01T04:17:49;2.57;;;1.50;;
10365;SDS011;5229;41.820;23.490;2023-04-01T04:20:16;1.93;;;1.73;;
10365;SDS011;5229;41.820;23.490;2023-04-01T04:22:43;1.97;;;1.60;;
10365;SDS011;5229;41.820;23.490;2023-04-01T04:25:10;3.07;;;1.70;;
10365;SDS011;5229;41.820;23.490;2023-04-01T04:27:38;4.20;;;1.80;;
10365;SDS011;5229;41.820;23.490;2023-04-01T04:30:05;1.67;;;1.40;;
10365;SDS011;5229;41.820;23.490;2023-04-01T04:32:33;1.80;;;1.70;;
10365;SDS011;5229;41.820;23.490;2023-04-01T04:35:00;1.87;;;1.40;;
10365;SDS011;5229;41.820;23.490;2023-04-01T04:37:27;1.80;;;1.70;;
10365;SDS011;5229;41.820;23.490;2023-04-01T04:39:54;2.40;;;1.57;;
10365;SDS011;5229;41.820;23.490;2023-04-01T04:42:20;3.13;;;2.00;;
10365;SDS011;5229;41.820;23.490;2023-04-01T04:44:49;2.47;;;1.70;;
10365;SDS011;5229;41.820;23.490;2023-04-01T04:47:15;2.13;;;1.83;;
10365;SDS011;5229;41.820;23.490;2023-04-01T04:49:42;3.17;;;1.93;;
10365;SDS011;5229;41.820;23.490;2023-04-01T04:52:09;3.77;;;1.93;;
10365;SDS011;5229;41.820;23.490;2023-04-01T04:54:35;2.87;;;2.03;;
10365;SDS011;5229;41.820;23.490;2023-04-01T04:57:02;1.83;;;1.63;;
10365;SDS011;5229;41.820;23.490;2023-04-01T04:59:30;2.43;;;1.97;;
10365;SDS011;5229;41.820;23.490;2023-04-01T05:01:58;3.10;;;1.40;;
10365;SDS011;5229;41.820;23.490;2023-04-01T05:04:25;2.07;;;1.77;;
10365;SDS011;5229;41.820;23.490;2023-04-01T05:06:52;2.90;;;1.83;;
10365;SDS011;5229;41.820;23.490;2023-04-01T05:09:18;1.67;;;1.57;;
10365;SDS011;5229;41.820;23.490;2023-04-01T05:11:45;2.17;;;1.70;;
10365;SDS011;5229;41.820;23.490;2023-04-01T05:14:13;1.90;;;1.70;;
10365;SDS011;5229;41.820;23.490;2023-04-01T05:16:40;2.47;;;1.93;;
10365;SDS011;5229;41.820;23.490;2023-04-01T05:19:08;2.67;;;1.73;;
10365;SDS011;5229;41.820;23.490;2023-04-01T05:21:35;3.47;;;2.27;;
10365;SDS011;5229;41.820;23.490;2023-04-01T05:24:02;5.27;;;3.43;;
10365;SDS011;5229;41.820;23.490;2023-04-01T05:26:29;6.30;;;3.57;;
10365;SDS011;5229;41.820;23.490;2023-04-01T05:28:55;4.30;;;3.10;;
10365;SDS011;5229;41.820;23.490;2023-04-01T05:31:22;4.37;;;3.60;;
10365;SDS011;5229;41.820;23.490;2023-04-01T05:33:50;4.27;;;3.73;;
10365;SDS011;5229;41.820;23.490;2023-04-01T05:36:19;5.27;;;4.63;;
10365;SDS011;5229;41.820;23.490;2023-04-01T05:38:46;19.67;;;13.50;;
10365;SDS011;5229;41.820;23.490;2023-04-01T05:41:14;19.60;;;14.83;;
10365;SDS011;5229;41.820;23.490;2023-04-01T05:43:41;25.60;;;16.60;;
10365;SDS011;5229;41.820;23.490;2023-04-01T05:46:08;25.20;;;17.40;;
10365;SDS011;5229;41.820;23.490;2023-04-01T05:48:35;24.20;;;16.73;;
10365;SDS011;5229;41.820;23.490;2023-04-01T05:51:02;23.57;;;15.73;;
10365;SDS011;5229;41.820;23.490;2023-04-01T05:53:30;21.97;;;17.30;;
10365;SDS011;5229;41.820;23.490;2023-04-01T05:56:01;31.43;;;23.03;;
10365;SDS011;5229;41.820;23.490;2023-04-01T05:58:28;34.27;;;24.30;;
10365;SDS011;5229;41.820;23.490;2023-04-01T06:00:59;42.10;;;27.50;;
10365;SDS011;5229;41.820;23.490;2023-04-01T06:03:28;39.73;;;29.20;;
10365;SDS011;5229;41.820;23.490;2023-04-01T06:05:54;37.33;;;27.80;;
10365;SDS011;5229;41.820;23.490;2023-04-01T06:08:21;44.50;;;32.60;;
10365;SDS011;5229;41.820;23.490;2023-04-01T06:10:52;44.53;;;30.63;;
10365;SDS011;5229;41.820;23.490;2023-04-01T06:13:30;33.03;;;26.00;;
10365;SDS011;5229;41.820;23.490;2023-04-01T06:16:11;34.53;;;25.23;;
10365;SDS011;5229;41.820;23.490;2023-04-01T06:18:52;30.73;;;22.97;;
10365;SDS011;5229;41.820;23.490;2023-04-01T06:24:46;21.53;;;16.73;;
10365;SDS011;5229;41.820;23.490;2023-04-01T06:27:32;22.37;;;19.07;;
10365;SDS011;5229;41.820;23.490;2023-04-01T06:30:24;18.70;;;15.10;;
10365;SDS011;5229;41.820;23.490;2023-04-01T06:33:04;15.13;;;12.20;;
10365;SDS011;5229;41.820;23.490;2023-04-01T06:38:44;6.10;;;5.50;;
10365;SDS011;5229;41.820;23.490;2023-04-01T06:41:38;13.15;;;11.77;;
10365;SDS011;5229;41.820;23.490;2023-04-01T06:44:31;14.43;;;12.93;;
10365;SDS011;5229;41.820;23.490;2023-04-01T06:47:14;13.13;;;11.18;;
10365;SDS011;5229;41.820;23.490;2023-04-01T06:49:56;12.63;;;10.13;;
10365;SDS011;5229;41.820;23.490;2023-04-01T06:52:33;12.93;;;9.02;;
10365;SDS011;5229;41.820;23.490;2023-04-01T06:55:14;10.20;;;9.20;;
10365;SDS011;5229;41.820;23.490;2023-04-01T06:57:50;15.32;;;11.70;;
10365;SDS011;5229;41.820;23.490;2023-04-01T07:00:24;13.88;;;11.00;;
10365;SDS011;5229;41.820;23.490;2023-04-01T07:02:56;11.73;;;9.55;;
10365;SDS011;5229;41.820;23.490;2023-04-01T07:05:30;13.63;;;10.30;;
10365;SDS011;5229;41.820;23.490;2023-04-01T07:07:59;11.38;;;9.50;;
10365;SDS011;5229;41.820;23.490;2023-04-01T07:10:31;8.88;;;7.45;;
10365;SDS011;5229;41.820;23.490;2023-04-01T07:13:02;12.68;;;5.28;;
10365;SDS011;5229;41.820;23.490;2023-04-01T07:15:36;6.95;;;5.13;;
10365;SDS011;5229;41.820;23.490;2023-04-01T07:18:09;7.65;;;4.47;;
10365;SDS011;5229;41.820;23.490;2023-04-01T07:20:41;5.82;;;4.63;;
10365;SDS011;5229;41.820;23.490;2023-04-01T07:23:10;8.57;;;6.37;;
10365;SDS011;5229;41.820;23.490;2023-04-01T07:25:47;9.50;;;8.17;;
10365;SDS011;5229;41.820;23.490;2023-04-01T07:28:17;8.77;;;6.50;;
10365;SDS011;5229;41.820;23.490;2023-04-01T07:30:48;9.13;;;6.53;;
10365;SDS011;5229;41.820;23.490;2023-04-01T07:33:25;9.43;;;6.93;;
10365;SDS011;5229;41.820;23.490;2023-04-01T07:36:01;9.63;;;6.90;;
10365;SDS011;5229;41.820;23.490;2023-04-01T07:38:33;7.77;;;6.77;;
10365;SDS011;5229;41.820;23.490;2023-04-01T07:41:10;7.90;;;7.10;;
10365;SDS011;5229;41.820;23.490;2023-04-01T07:43:52;8.83;;;6.90;;
10365;SDS011;5229;41.820;23.490;2023-04-01T07:46:37;7.73;;;6.97;;
10365;SDS011;5229;41.820;23.490;2023-04-01T07:49:18;9.50;;;7.43;;
10365;SDS011;5229;41.820;23.490;2023-04-01T07:51:54;8.57;;;6.93;;
10365;SDS011;5229;41.820;23.490;2023-04-01T07:54:28;7.37;;;5.30;;
10365;SDS011;5229;41.820;23.490;2023-04-01T07:57:05;9.87;;;6.73;;
10365;SDS011;5229;41.820;23.490;2023-04-01T07:59:39;6.53;;;5.90;;
10365;SDS011;5229;41.820;23.490;2023-04-01T08:02:21;7.93;;;6.80;;
10365;SDS011;5229;41.820;23.490;2023-04-01T08:04:59;13.57;;;10.17;;
10365;SDS011;5229;41.820;23.490;2023-04-01T08:07:40;12.67;;;8.70;;
10365;SDS011;5229;41.820;23.490;2023-04-01T08:10:14;8.77;;;7.87;;
10365;SDS011;5229;41.820;23.490;2023-04-01T08:12:48;13.27;;;7.37;;
10365;SDS011;5229;41.820;23.490;2023-04-01T08:15:25;9.47;;;7.30;;
10365;SDS011;5229;41.820;23.490;2023-04-01T08:17:58;8.70;;;7.00;;
10365;SDS011;5229;41.820;23.490;2023-04-01T08:20:33;9.90;;;8.60;;
10365;SDS011;5229;41.820;23.490;2023-04-01T08:23:06;12.57;;;7.70;;
10365;SDS011;5229;41.820;23.490;2023-04-01T08:25:39;12.17;;;8.03;;
10365;SDS011;5229;41.820;23.490;2023-04-01T08:28:13;9.53;;;7.27;;
10365;SDS011;5229;41.820;23.490;2023-04-01T08:30:45;8.93;;;7.20;;
10365;SDS011;5229;41.820;23.490;2023-04-01T08:33:19;10.60;;;8.23;;
10365;SDS011;5229;41.820;23.490;2023-04-01T08:35:56;8.48;;;7.45;;
10365;SDS011;5229;41.820;23.490;2023-04-01T08:38:29;8.43;;;6.85;;
10365;SDS011;5229;41.820;23.490;2023-04-01T08:41:00;10.73;;;8.27;;
10365;SDS011;5229;41.820;23.490;2023-04-01T08:46:53;10.07;;;6.75;;
10365;SDS011;5229;41.820;23.490;2023-04-01T08:49:36;7.90;;;6.10;;
10365;SDS011;5229;41.820;23.490;2023-04-01T08:52:26;6.15;;;5.55;;
10365;SDS011;5229;41.820;23.490;2023-04-01T08:55:04;5.78;;;4.95;;
10365;SDS011;5229;41.820;23.490;2023-04-01T08:57:52;5.50;;;4.78;;
10365;SDS011;5229;41.820;23.490;2023-04-01T09:00:30;5.97;;;5.15;;
10365;SDS011;5229;41.820;23.490;2023-04-01T09:05:53;4.75;;;3.75;;
10365;SDS011;5229;41.820;23.490;2023-04-01T09:08:36;5.93;;;3.35;;
10365;SDS011;5229;41.820;23.490;2023-04-01T09:11:17;5.18;;;3.88;;
10365;SDS011;5229;41.820;23.490;2023-04-01T09:14:00;6.55;;;3.60;;
10365;SDS011;5229;41.820;23.490;2023-04-01T09:17:04;4.20;;;3.35;;
10365;SDS011;5229;41.820;23.490;2023-04-01T09:19:50;4.72;;;3.55;;
10365;SDS011;5229;41.820;23.490;2023-04-01T09:22:31;4.57;;;3.75;;
10365;SDS011;5229;41.820;23.490;2023-04-01T09:28:07;4.45;;;3.38;;
10365;SDS011;5229;41.820;23.490;2023-04-01T09:30:45;3.83;;;3.10;;
10365;SDS011;5229;41.820;23.490;2023-04-01T09:36:33;5.75;;;3.67;;
10365;SDS011;5229;41.820;23.490;2023-04-01T09:39:16;4.32;;;3.92;;
10365;SDS011;5229;41.820;23.490;2023-04-01T09:42:02;4.53;;;3.30;;
10365;SDS011;5229;41.820;23.490;2023-04-01T09:44:35;3.83;;;3.50;;
10365;SDS011;5229;41.820;23.490;2023-04-01T09:47:07;7.55;;;4.10;;
10365;SDS011;5229;41.820;23.490;2023-04-01T09:49:55;5.88;;;4.15;;
10365;SDS011;5229;41.820;23.490;2023-04-01T09:52:42;4.90;;;4.32;;
10365;SDS011;5229;41.820;23.490;2023-04-01T09:55:25;5.10;;;3.80;;
10365;SDS011;5229;41.820;23.490;2023-04-01T09:58:21;5.18;;;4.43;;
10365;SDS011;5229;41.820;23.490;2023-04-01T10:01:16;6.03;;;4.13;;
10365;SDS011;5229;41.820;23.490;2023-04-01T10:07:18;6.28;;;3.67;;
10365;SDS011;5229;41.820;23.490;2023-04-01T10:13:20;3.58;;;3.10;;
10365;SDS011;5229;41.820;23.490;2023-04-01T10:16:23;3.70;;;3.10;;
10365;SDS011;5229;41.820;23.490;2023-04-01T10:19:11;2.88;;;2.63;;
10365;SDS011;5229;41.820;23.490;2023-04-01T10:22:24;2.75;;;2.45;;
10365;SDS011;5229;41.820;23.490;2023-04-01T10:31:49;2.42;;;2.10;;
10365;SDS011;5229;41.820;23.490;2023-04-01T10:38:02;2.65;;;2.13;;
10365;SDS011;5229;41.820;23.490;2023-04-01T10:40:53;2.40;;;1.60;;
10365;SDS011;5229;41.820;23.490;2023-04-01T10:43:59;3.60;;;2.03;;
10365;SDS011;5229;41.820;23.490;2023-04-01T10:47:01;2.05;;;1.83;;
10365;SDS011;5229;41.820;23.490;2023-04-01T10:49:55;2.78;;;2.00;;
10365;SDS011;5229;41.820;23.490;2023-04-01T10:53:05;5.57;;;2.15;;
10365;SDS011;5229;41.820;23.490;2023-04-01T10:56:15;2.90;;;2.35;;
10365;SDS011;5229;41.820;23.490;2023-04-01T11:05:42;3.72;;;1.75;;
10365;SDS011;5229;41.820;23.490;2023-04-01T11:11:47;2.08;;;1.27;;
10365;SDS011;5229;41.820;23.490;2023-04-01T11:17:42;6.63;;;1.95;;
10365;SDS011;5229;41.820;23.490;2023-04-01T11:23:39;3.15;;;1.40;;
10365;SDS011;5229;41.820;23.490;2023-04-01T11:26:17;1.92;;;1.27;;
10365;SDS011;5229;41.820;23.490;2023-04-01T11:29:03;4.97;;;1.30;;
10365;SDS011;5229;41.820;23.490;2023-04-01T11:32:06;3.80;;;1.40;;
10365;SDS011;5229;41.820;23.490;2023-04-01T11:34:56;2.25;;;1.48;;
10365;SDS011;5229;41.820;23.490;2023-04-01T11:37:37;1.67;;;1.33;;
10365;SDS011;5229;41.820;23.490;2023-04-01T11:40:17;2.00;;;1.20;;
10365;SDS011;5229;41.820;23.490;2023-04-01T11:42:54;2.22;;;1.23;;
10365;SDS011;5229;41.820;23.490;2023-04-01T11:45:31;3.53;;;1.42;;
10365;SDS011;5229;41.820;23.490;2023-04-01T11:48:09;5.22;;;2.63;;
10365;SDS011;5229;41.820;23.490;2023-04-01T11:51:00;6.93;;;1.95;;
10365;SDS011;5229;41.820;23.490;2023-04-01T11:53:44;2.50;;;1.58;;
10365;SDS011;5229;41.820;23.490;2023-04-01T11:56:28;2.00;;;1.25;;
10365;SDS011;5229;41.820;23.490;2023-04-01T11:59:22;2.58;;;1.95;;
10365;SDS011;5229;41.820;23.490;2023-04-01T12:02:07;2.03;;;1.52;;
10365;SDS011;5229;41.820;23.490;2023-04-01T12:07:45;2.95;;;1.48;;
10365;SDS011;5229;41.820;23.490;2023-04-01T12:10:38;2.27;;;1.53;;
10365;SDS011;5229;41.820;23.490;2023-04-01T12:13:16;3.27;;;3.07;;
10365;SDS011;5229;41.820;23.490;2023-04-01T12:16:07;5.97;;;2.75;;
10365;SDS011;5229;41.820;23.490;2023-04-01T12:18:45;4.05;;;1.88;;
10365;SDS011;5229;41.820;23.490;2023-04-01T12:21:17;3.27;;;1.73;;
10365;SDS011;5229;41.820;23.490;2023-04-01T12:23:56;5.27;;;1.70;;
10365;SDS011;5229;41.820;23.490;2023-04-01T12:29:58;2.20;;;1.87;;
10365;SDS011;5229;41.820;23.490;2023-04-01T12:32:38;4.57;;;1.63;;
10365;SDS011;5229;41.820;23.490;2023-04-01T12:35:17;4.50;;;2.20;;
10365;SDS011;5229;41.820;23.490;2023-04-01T12:37:53;10.47;;;2.17;;
10365;SDS011;5229;41.820;23.490;2023-04-01T12:40:47;1.77;;;1.20;;
10365;SDS011;5229;41.820;23.490;2023-04-01T12:43:28;4.00;;;1.60;;
10365;SDS011;5229;41.820;23.490;2023-04-01T12:46:15;1.60;;;1.50;;
10365;SDS011;5229;41.820;23.490;2023-04-01T12:51:48;3.83;;;2.30;;
10365;SDS011;5229;41.820;23.490;2023-04-01T12:54:46;6.00;;;3.60;;
10365;SDS011;5229;41.820;23.490;2023-04-01T13:00:28;3.80;;;2.60;;
10365;SDS011;5229;41.820;23.490;2023-04-01T13:03:19;2.87;;;1.80;;
10365;SDS011;5229;41.820;23.490;2023-04-01T13:06:10;3.30;;;2.10;;
10365;SDS011;5229;41.820;23.490;2023-04-01T13:09:01;1.53;;;1.30;;
10365;SDS011;5229;41.820;23.490;2023-04-01T13:11:45;3.70;;;1.60;;
10365;SDS011;5229;41.820;23.490;2023-04-01T13:14:50;1.20;;;1.10;;
10365;SDS011;5229;41.820;23.490;2023-04-01T13:17:32;2.73;;;0.83;;
10365;SDS011;5229;41.820;23.490;2023-04-01T13:20:11;1.13;;;0.97;;
10365;SDS011;5229;41.820;23.490;2023-04-01T13:22:50;1.90;;;1.20;;
10365;SDS011;5229;41.820;23.490;2023-04-01T13:25:26;1.50;;;1.40;;
10365;SDS011;5229;41.820;23.490;2023-04-01T13:28:03;1.97;;;0.80;;
10365;SDS011;5229;41.820;23.490;2023-04-01T13:30:41;0.70;;;0.70;;
10365;SDS011;5229;41.820;23.490;2023-04-01T13:33:15;1.63;;;0.70;;
10365;SDS011;5229;41.820;23.490;2023-04-01T13:35:55;1.17;;;1.07;;
10365;SDS011;5229;41.820;23.490;2023-04-01T13:41:39;2.20;;;2.00;;
10365;SDS011;5229;41.820;23.490;2023-04-01T13:44:16;0.87;;;0.87;;
10365;SDS011;5229;41.820;23.490;2023-04-01T13:46:54;2.77;;;1.67;;
10365;SDS011;5229;41.820;23.490;2023-04-01T13:49:53;2.30;;;1.10;;
10365;SDS011;5229;41.820;23.490;2023-04-01T13:52:50;0.90;;;0.80;;
10365;SDS011;5229;41.820;23.490;2023-04-01T13:55:29;1.20;;;1.10;;
10365;SDS011;5229;41.820;23.490;2023-04-01T13:58:09;1.17;;;1.10;;
10365;SDS011;5229;41.820;23.490;2023-04-01T14:00:53;2.23;;;1.40;;
10365;SDS011;5229;41.820;23.490;2023-04-01T14:03:30;2.60;;;1.60;;
10365;SDS011;5229;41.820;23.490;2023-04-01T14:06:13;1.47;;;1.07;;
10365;SDS011;5229;41.820;23.490;2023-04-01T14:08:51;1.23;;;1.13;;
10365;SDS011;5229;41.820;23.490;2023-04-01T14:11:45;4.60;;;2.97;;
10365;SDS011;5229;41.820;23.490;2023-04-01T14:14:22;4.77;;;3.10;;
10365;SDS011;5229;41.820;23.490;2023-04-01T14:22:56;3.70;;;2.50;;
10365;SDS011;5229;41.820;23.490;2023-04-01T14:28:46;1.87;;;0.80;;
10365;SDS011;5229;41.820;23.490;2023-04-01T14:31:23;4.30;;;2.20;;
10365;SDS011;5229;41.820;23.490;2023-04-01T14:34:03;3.20;;;1.13;;
10365;SDS011;5229;41.820;23.490;2023-04-01T14:36:50;1.90;;;1.07;;
10365;SDS011;5229;41.820;23.490;2023-04-01T14:39:38;1.33;;;0.73;;
10365;SDS011;5229;41.820;23.490;2023-04-01T14:42:19;0.90;;;0.90;;
10365;SDS011;5229;41.820;23.490;2023-04-01T14:45:05;0.90;;;0.90;;
10365;SDS011;5229;41.820;23.490;2023-04-01T14:47:46;2.07;;;1.30;;
10365;SDS011;5229;41.820;23.490;2023-04-01T14:50:17;1.43;;;1.30;;
10365;SDS011;5229;41.820;23.490;2023-04-01T14:52:50;1.67;;;1.30;;
10365;SDS011;5229;41.820;23.490;2023-04-01T14:55:31;1.83;;;1.23;;
10365;SDS011;5229;41.820;23.490;2023-04-01T14:58:07;4.57;;;2.73;;
10365;SDS011;5229;41.820;23.490;2023-04-01T15:00:45;5.00;;;2.97;;
10365;SDS011;5229;41.820;23.490;2023-04-01T15:03:18;7.03;;;4.87;;
10365;SDS011;5229;41.820;23.490;2023-04-01T15:05:51;7.67;;;4.17;;
10365;SDS011;5229;41.820;23.490;2023-04-01T15:08:23;5.17;;;2.83;;
10365;SDS011;5229;41.820;23.490;2023-04-01T15:13:53;3.33;;;1.83;;
10365;SDS011;5229;41.820;23.490;2023-04-01T15:16:34;10.27;;;5.90;;
10365;SDS011;5229;41.820;23.490;2023-04-01T15:19:14;9.60;;;5.33;;
10365;SDS011;5229;41.820;23.490;2023-04-01T15:21:52;1.60;;;1.50;;
10365;SDS011;5229;41.820;23.490;2023-04-01T15:24:41;0.70;;;0.50;;
10365;SDS011;5229;41.820;23.490;2023-04-01T15:27:16;1.23;;;0.20;;
10365;SDS011;5229;41.820;23.490;2023-04-01T15:30:13;0.20;;;0.20;;
10365;SDS011;5229;41.820;23.490;2023-04-01T15:32:52;0.90;;;0.90;;
10365;SDS011;5229;41.820;23.490;2023-04-01T15:35:32;0.20;;;0.20;;
10365;SDS011;5229;41.820;23.490;2023-04-01T15:38:12;0.83;;;0.63;;
10365;SDS011;5229;41.820;23.490;2023-04-01T15:40:53;1.63;;;1.40;;
10365;SDS011;5229;41.820;23.490;2023-04-01T15:43:26;7.97;;;6.27;;
10365;SDS011;5229;41.820;23.490;2023-04-01T15:46:09;10.13;;;6.10;;
10365;SDS011;5229;41.820;23.490;2023-04-01T15:48:57;16.40;;;9.50;;
10365;SDS011;5229;41.820;23.490;2023-04-01T15:57:28;0.53;;;0.53;;
10365;SDS011;5229;41.820;23.490;2023-04-01T16:00:12;2.10;;;1.57;;
10365;SDS011;5229;41.820;23.490;2023-04-01T16:02:58;3.80;;;2.50;;
10365;SDS011;5229;41.820;23.490;2023-04-01T16:05:44;1.67;;;1.40;;
10365;SDS011;5229;41.820;23.490;2023-04-01T16:08:40;1.90;;;1.50;;
10365;SDS011;5229;41.820;23.490;2023-04-01T16:11:28;1.40;;;1.30;;
10365;SDS011;5229;41.820;23.490;2023-04-01T16:14:07;1.40;;;1.30;;
10365;SDS011;5229;41.820;23.490;2023-04-01T16:16:48;4.67;;;3.50;;
10365;SDS011;5229;41.820;23.490;2023-04-01T16:19:33;3.20;;;2.00;;
10365;SDS011;5229;41.820;23.490;2023-04-01T16:22:09;2.80;;;2.53;;
10365;SDS011;5229;41.820;23.490;2023-04-01T16:24:43;4.33;;;3.90;;
10365;SDS011;5229;41.820;23.490;2023-04-01T16:27:15;2.23;;;1.80;;
10365;SDS011;5229;41.820;23.490;2023-04-01T16:29:50;6.60;;;5.00;;
10365;SDS011;5229;41.820;23.490;2023-04-01T16:32:31;3.97;;;3.27;;
10365;SDS011;5229;41.820;23.490;2023-04-01T16:38:01;3.47;;;2.10;;
10365;SDS011;5229;41.820;23.490;2023-04-01T16:40:39;3.13;;;1.60;;
10365;SDS011;5229;41.820;23.490;2023-04-01T16:43:14;2.20;;;2.00;;
10365;SDS011;5229;41.820;23.490;2023-04-01T16:45:56;2.10;;;1.40;;
10365;SDS011;5229;41.820;23.490;2023-04-01T16:48:54;2.33;;;1.90;;
10365;SDS011;5229;41.820;23.490;2023-04-01T16:51:39;2.27;;;1.63;;
10365;SDS011;5229;41.820;23.490;2023-04-01T16:54:17;4.50;;;1.70;;
10365;SDS011;5229;41.820;23.490;2023-04-01T16:56:55;2.20;;;1.63;;
10365;SDS011;5229;41.820;23.490;2023-04-01T16:59:32;3.03;;;1.87;;
10365;SDS011;5229;41.820;23.490;2023-04-01T17:02:08;1.80;;;1.43;;
10365;SDS011;5229;41.820;23.490;2023-04-01T17:04:41;1.07;;;1.07;;
10365;SDS011;5229;41.820;23.490;2023-04-01T17:07:13;1.83;;;1.47;;
10365;SDS011;5229;41.820;23.490;2023-04-01T17:13:06;1.30;;;1.20;;